createdAt,value
2023-02-17T00:02:38.091Z,85.19
2023-02-17T00:06:39.685Z,85.21
2023-02-17T00:10:42.269Z,85.37
2023-02-17T00:14:43.961Z,85.63
2023-02-17T00:18:46.416Z,85.46
2023-02-17T00:22:48.803Z,85.89
2023-02-17T00:26:50.909Z,85.83
2023-02-17T00:30:52.930Z,85.74
2023-02-17T00:34:56.305Z,85.82
2023-02-17T00:38:58.192Z,86.23
2023-02-17T00:43:00.118Z,86.75
2023-02-17T00:47:02.444Z,87.24
2023-02-17T00:51:04.777Z,87.14
2023-02-17T00:55:06.690Z,86.97
2023-02-17T00:59:09.298Z,87.02
2023-02-17T01:03:11.148Z,87.20
2023-02-17T01:07:13.748Z,87.37
2023-02-17T01:11:26.935Z,87.13
2023-02-17T01:15:30.806Z,86.65
2023-02-17T01:19:33.273Z,86.27
2023-02-17T01:23:34.899Z,86.12
2023-02-17T01:27:36.795Z,85.77
2023-02-17T01:31:39.885Z,85.88
2023-02-17T01:35:41.954Z,85.43
2023-02-17T01:39:44.147Z,85.32
2023-02-17T01:44:09.898Z,85.53
2023-02-17T01:48:16.276Z,86.04
2023-02-17T01:52:23.622Z,86.45
2023-02-17T01:56:26.487Z,86.54
2023-02-17T02:00:31.291Z,86.40
2023-02-17T02:04:37.328Z,86.68
2023-02-17T02:09:31.464Z,86.88
2023-02-17T02:13:33.533Z,87.48
2023-02-17T02:17:48.395Z,88.30
2023-02-17T02:21:58.826Z,88.41
2023-02-17T02:26:03.706Z,88.43
2023-02-17T02:30:48.620Z,88.08
2023-02-17T02:35:00.700Z,87.86
2023-02-17T02:39:13.570Z,87.87
2023-02-17T02:43:16.854Z,87.65
2023-02-17T02:47:47.269Z,87.53
2023-02-17T02:52:10.128Z,87.44
2023-02-17T02:56:35.732Z,87.18
2023-02-17T03:00:53.358Z,87.00
2023-02-17T03:05:23.373Z,87.37
2023-02-17T03:09:27.059Z,87.44
2023-02-17T03:13:28.907Z,87.58
2023-02-17T03:17:32.587Z,87.64
2023-02-17T03:21:41.296Z,88.30
2023-02-17T03:25:44.507Z,89.79
2023-02-17T03:29:46.350Z,90.38
2023-02-17T03:33:48.927Z,90.88
2023-02-17T03:37:50.533Z,91.68
2023-02-17T03:41:52.334Z,91.78
2023-02-17T03:45:55.091Z,91.68
2023-02-17T03:49:56.744Z,92.10
2023-02-17T03:53:58.916Z,92.42
2023-02-17T03:58:01.306Z,92.26
2023-02-17T04:02:03.582Z,91.68
2023-02-17T04:06:06.555Z,91.30
2023-02-17T04:10:09.681Z,90.95
2023-02-17T04:14:11.437Z,90.52
2023-02-17T04:18:13.658Z,90.27
2023-02-17T04:22:16.138Z,89.54
2023-02-17T04:26:17.954Z,88.48
2023-02-17T04:30:19.918Z,87.76
2023-02-17T04:34:21.737Z,87.40
2023-02-17T04:38:23.514Z,87.24
2023-02-17T04:42:25.348Z,86.91
2023-02-17T04:46:29.009Z,86.74
2023-02-17T04:50:32.209Z,86.65
2023-02-17T04:54:33.964Z,86.77
2023-02-17T04:58:35.955Z,86.88
2023-02-17T05:02:38.168Z,86.60
2023-02-17T05:06:40.599Z,86.08
2023-02-17T05:10:43.559Z,85.94
2023-02-17T05:14:46.299Z,85.73
2023-02-17T05:18:48.162Z,85.75
2023-02-17T05:22:50.061Z,85.53
2023-02-17T05:26:51.727Z,85.75
2023-02-17T05:30:53.626Z,87.55
2023-02-17T05:34:55.422Z,89.18
2023-02-17T05:38:57.618Z,90.34
2023-02-17T05:42:59.621Z,91.70
2023-02-17T05:47:02.905Z,92.43
2023-02-17T05:51:05.011Z,93.60
2023-02-17T05:55:07.302Z,94.24
2023-02-17T05:59:09.160Z,94.58
2023-02-17T06:03:11.203Z,94.54
2023-02-17T06:07:13.514Z,94.85
2023-02-17T06:11:15.383Z,95.15
2023-02-17T06:15:17.268Z,95.55
2023-02-17T06:19:19.017Z,95.58
2023-02-17T06:23:20.849Z,95.08
2023-02-17T06:27:22.721Z,94.96
2023-02-17T06:31:24.697Z,95.48
2023-02-17T06:35:26.683Z,95.24
2023-02-17T06:39:28.908Z,95.21
2023-02-17T06:43:30.669Z,94.95
2023-02-17T06:47:33.150Z,94.39
2023-02-17T06:51:35.021Z,94.61
2023-02-17T06:55:38.931Z,95.04
2023-02-17T06:59:43.932Z,95.23
2023-02-17T07:03:46.119Z,95.76
2023-02-17T07:07:47.928Z,96.70
2023-02-17T07:11:50.612Z,96.91
2023-02-17T07:15:52.385Z,96.79
2023-02-17T07:19:54.331Z,96.41
2023-02-17T07:23:56.159Z,96.18
2023-02-17T07:27:59.392Z,96.07
2023-02-17T07:32:01.803Z,96.02
2023-02-17T07:36:08.498Z,96.11
2023-02-17T07:40:10.835Z,96.55
2023-02-17T07:44:13.056Z,96.68
2023-02-17T07:48:16.086Z,97.30
2023-02-17T07:52:18.285Z,98.06
2023-02-17T07:56:21.602Z,98.36
2023-02-17T08:00:23.489Z,97.58
2023-02-17T08:04:29.574Z,96.95
2023-02-17T08:08:50.128Z,97.05
2023-02-17T08:13:10.251Z,98.06
2023-02-17T08:17:12.496Z,98.87
2023-02-17T08:21:14.424Z,99.79
2023-02-17T08:25:16.232Z,100.00
2023-02-17T08:29:19.692Z,100.00
2023-02-17T08:33:21.602Z,100.00
2023-02-17T08:37:25.603Z,100.00
2023-02-17T08:41:29.978Z,100.00
2023-02-17T08:45:32.424Z,100.00
2023-02-17T08:49:35.276Z,100.00
2023-02-17T08:53:37.005Z,100.00
2023-02-17T08:57:38.870Z,100.00
2023-02-17T09:01:41.880Z,100.00
2023-02-17T09:05:43.805Z,100.00
2023-02-17T09:09:45.530Z,100.00
2023-02-17T09:13:47.402Z,100.00
2023-02-17T09:17:49.258Z,100.00
2023-02-17T09:21:51.713Z,100.00
2023-02-17T09:26:12.415Z,100.00
2023-02-17T09:30:14.587Z,100.00
2023-02-17T09:34:16.250Z,100.00
2023-02-17T09:38:17.857Z,100.00
2023-02-17T09:42:22.678Z,100.00
2023-02-17T09:46:32.560Z,100.00
2023-02-17T09:50:45.256Z,100.00
2023-02-17T09:55:05.352Z,100.00
2023-02-17T09:59:45.756Z,100.00
2023-02-17T10:03:55.520Z,100.00
2023-02-17T10:08:04.394Z,100.00
2023-02-17T10:12:13.214Z,100.00
2023-02-17T10:16:23.015Z,99.72
2023-02-17T10:20:30.719Z,99.66
2023-02-17T10:24:32.703Z,98.71
2023-02-17T10:28:50.298Z,98.32
2023-02-17T10:33:10.654Z,99.14
2023-02-17T10:37:31.283Z,99.87
2023-02-17T10:41:36.040Z,100.00
2023-02-17T10:45:42.644Z,100.00
2023-02-17T10:49:49.050Z,100.00
2023-02-17T10:54:11.162Z,100.00
2023-02-17T10:58:13.519Z,100.00
2023-02-17T11:02:38.318Z,100.00
2023-02-17T11:06:54.526Z,100.00
2023-02-17T11:11:06.497Z,99.12
2023-02-17T11:15:17.755Z,97.89
2023-02-17T11:19:25.403Z,97.48
2023-02-17T11:23:27.086Z,97.11
2023-02-17T11:27:28.944Z,96.83
2023-02-17T11:31:31.120Z,96.16
2023-02-17T11:35:35.721Z,96.38
2023-02-17T11:39:43.814Z,96.31
2023-02-17T11:43:59.373Z,96.37
2023-02-17T11:48:14.157Z,94.85
2023-02-17T11:52:32.322Z,94.69
2023-02-17T11:56:40.370Z,94.39
2023-02-17T12:00:48.071Z,93.86
2023-02-17T12:04:59.855Z,94.06
2023-02-17T12:09:33.796Z,93.57
2023-02-17T12:13:41.271Z,95.20
2023-02-17T12:17:56.682Z,94.22
2023-02-17T12:22:23.382Z,94.93
2023-02-17T12:26:38.904Z,94.81
2023-02-17T12:31:11.404Z,94.38
2023-02-17T12:35:21.047Z,94.41
2023-02-17T12:39:36.571Z,95.28
2023-02-17T12:43:49.532Z,94.11
2023-02-17T12:48:08.536Z,93.52
2023-02-17T12:52:19.218Z,92.68
2023-02-17T12:56:27.791Z,91.11
2023-02-17T13:00:50.082Z,88.59
2023-02-17T13:04:54.585Z,87.69
2023-02-17T13:09:02.584Z,86.54
2023-02-17T13:13:04.295Z,85.96
2023-02-17T13:17:05.920Z,85.76
2023-02-17T13:21:20.047Z,86.12
2023-02-17T13:25:31.390Z,86.25
2023-02-17T13:29:35.268Z,86.30
2023-02-17T13:33:43.511Z,87.93
2023-02-17T13:37:45.940Z,90.71
2023-02-17T13:41:48.628Z,90.03
2023-02-17T13:46:00.102Z,89.83
2023-02-17T13:50:02.127Z,90.52
2023-02-17T13:54:06.553Z,91.03
2023-02-17T13:58:10.390Z,90.78
2023-02-17T14:02:35.081Z,91.04
2023-02-17T14:06:39.838Z,90.86
2023-02-17T14:10:41.659Z,91.49
2023-02-17T14:14:43.598Z,91.74
2023-02-17T14:18:45.265Z,91.76
2023-02-17T14:22:53.258Z,92.01
2023-02-17T14:27:08.091Z,92.22
2023-02-17T14:31:12.127Z,92.46
2023-02-17T14:35:14.065Z,92.16
2023-02-17T14:39:15.900Z,92.42
2023-02-17T14:43:17.655Z,92.72
2023-02-17T14:47:19.409Z,93.00
2023-02-17T14:51:24.915Z,93.15
2023-02-17T14:55:29.690Z,93.62
2023-02-17T14:59:31.500Z,93.65
2023-02-17T15:03:33.590Z,93.69
2023-02-17T15:07:35.684Z,93.27
2023-02-17T15:11:38.885Z,93.14
2023-02-17T15:15:44.328Z,93.53
2023-02-17T15:19:48.753Z,92.73
2023-02-17T15:23:51.141Z,92.20
2023-02-17T15:27:52.986Z,91.73
2023-02-17T15:31:56.524Z,91.10
2023-02-17T15:35:58.439Z,90.58
2023-02-17T15:40:00.362Z,90.28
2023-02-17T15:44:05.737Z,89.56
2023-02-17T15:48:13.499Z,89.14
2023-02-17T15:52:15.552Z,88.61
2023-02-17T15:56:21.946Z,88.40
2023-02-17T16:00:26.855Z,87.79
2023-02-17T16:04:28.669Z,86.66
2023-02-17T16:08:30.373Z,86.29
2023-02-17T16:12:32.436Z,86.12
2023-02-17T16:16:35.408Z,86.45
2023-02-17T16:20:37.151Z,85.87
2023-02-17T16:24:38.842Z,85.75
2023-02-17T16:28:40.743Z,85.66
2023-02-17T16:32:42.437Z,85.59
2023-02-17T16:36:44.534Z,85.28
2023-02-17T16:40:48.747Z,84.56
2023-02-17T16:44:51.040Z,84.38
2023-02-17T16:48:52.860Z,84.51
2023-02-17T16:52:58.595Z,84.26
2023-02-17T16:57:01.238Z,84.52
2023-02-17T17:01:03.985Z,85.33
2023-02-17T17:05:07.173Z,85.34
2023-02-17T17:09:16.216Z,85.59
2023-02-17T17:13:18.194Z,85.63
2023-02-17T17:17:20.265Z,85.69
2023-02-17T17:21:22.126Z,86.02
2023-02-17T17:25:23.951Z,86.05
2023-02-17T17:29:25.719Z,86.47
2023-02-17T17:33:27.574Z,86.63
2023-02-17T17:37:29.513Z,86.35
2023-02-17T17:41:31.747Z,86.31
2023-02-17T17:45:33.960Z,86.83
2023-02-17T17:49:35.882Z,86.78
2023-02-17T17:53:37.925Z,87.13
2023-02-17T17:57:40.421Z,87.42
2023-02-17T18:01:45.117Z,87.01
2023-02-17T18:05:48.037Z,86.78
2023-02-17T18:09:49.797Z,86.96
2023-02-17T18:13:54.141Z,87.00
2023-02-17T18:17:56.979Z,87.09
2023-02-17T18:21:58.690Z,87.05
2023-02-17T18:26:00.481Z,87.44
2023-02-17T18:30:03.022Z,87.72
2023-02-17T18:34:04.936Z,87.62
2023-02-17T18:38:06.776Z,87.71
2023-02-17T18:42:09.640Z,87.98
2023-02-17T18:46:11.576Z,88.32
2023-02-17T18:50:15.052Z,88.43
2023-02-17T18:54:16.930Z,89.04
2023-02-17T18:58:18.764Z,88.89
2023-02-17T19:02:21.459Z,89.47
2023-02-17T19:06:25.774Z,90.03
2023-02-17T19:10:27.547Z,90.34
2023-02-17T19:14:32.887Z,91.90
2023-02-17T19:18:34.583Z,94.90
2023-02-17T19:22:36.911Z,99.59
2023-02-17T19:26:39.570Z,100.00
2023-02-17T19:30:41.364Z,100.00
2023-02-17T19:34:43.137Z,100.00
2023-02-17T19:38:45.482Z,100.00
2023-02-17T19:42:48.275Z,100.00
2023-02-17T19:46:50.266Z,100.00
2023-02-17T19:50:58.124Z,100.00
2023-02-17T19:55:02.110Z,100.00
2023-02-17T19:59:04.288Z,100.00
2023-02-17T20:03:06.453Z,100.00
2023-02-17T20:07:09.406Z,100.00
2023-02-17T20:11:19.746Z,100.00
2023-02-17T20:15:21.788Z,100.00
2023-02-17T20:19:23.553Z,100.00
2023-02-17T20:23:25.261Z,100.00
2023-02-17T20:27:26.962Z,100.00
2023-02-17T20:31:28.894Z,100.00
2023-02-17T20:35:34.704Z,100.00
2023-02-17T20:39:37.976Z,100.00
2023-02-17T20:43:40.054Z,100.00
2023-02-17T20:47:42.324Z,100.00
2023-02-17T20:51:44.528Z,100.00
2023-02-17T20:55:46.543Z,99.44
2023-02-17T20:59:48.460Z,98.21
2023-02-17T21:03:50.759Z,98.47
2023-02-17T21:07:52.953Z,98.27
2023-02-17T21:11:54.800Z,98.60
2023-02-17T21:15:56.487Z,98.69
2023-02-17T21:19:58.183Z,97.55
2023-02-17T21:23:59.916Z,96.83
2023-02-17T21:28:01.560Z,96.72
2023-02-17T21:32:06.754Z,96.66
2023-02-17T21:36:11.192Z,96.76
2023-02-17T21:40:13.137Z,96.53
2023-02-17T21:44:33.268Z,96.71
2023-02-17T21:48:34.951Z,96.47
2023-02-17T21:52:36.711Z,96.78
2023-02-17T21:56:38.384Z,96.91
2023-02-17T22:00:40.495Z,96.83
2023-02-17T22:04:42.300Z,99.75
2023-02-17T22:18:15.388Z,100.00
2023-02-17T22:22:19.547Z,100.00
2023-02-17T22:31:35.410Z,100.00
2023-02-17T22:36:27.346Z,100.00
2023-02-17T22:40:35.757Z,100.00
2023-02-17T23:16:48.469Z,96.16
2023-02-17T23:20:53.055Z,95.14
2023-02-17T23:24:58.871Z,97.20
2023-02-17T23:29:01.020Z,99.79
2023-02-17T23:33:03.350Z,98.97
2023-02-17T23:37:05.676Z,89.83
2023-02-17T23:41:07.645Z,83.84
2023-02-17T23:45:10.576Z,83.39
2023-02-17T23:49:17.380Z,87.64
2023-02-17T23:53:19.286Z,90.48
2023-02-17T23:57:21.095Z,87.72
